Daska Weather



Daska's Current Weather

Temprature 20.99o overcast clouds

overcast clouds

Rain: 0 %

Min Temprature20.99o
Max Temprature20.99o
Humidity56
Wind Speed4.92 m/h
Sun Rise04:59:50
Sun Set18:59:18
Current Time: 24-May-2022 07:07:30
Lat/Lon: 32.3243, 74.3497




Daska's Geo Location



Daska's Weather Forecast

Time Overall Temp Min Temp Max Temp Humidity Wind Speed Rain
24-May-2022 (Tue)
08:00:00 overcast clouds 20.990 20.990 25.220 47 3.73 m/h 0 %
11:00:00 overcast clouds 24.230 24.230 30.710 41 4.3 m/h 0 %
14:00:00 broken clouds 29.010 29.010 33.020 31 1.43 m/h 0 %
17:00:00 scattered clouds 33.950 33.950 33.950 20 2.04 m/h 0 %
20:00:00 clear sky 30.570 30.570 30.570 25 0.69 m/h 0 %
23:00:00 clear sky 28.770 28.770 28.770 27 2.47 m/h 0 %
25-May-2022 (Wed)
02:00:00 clear sky 27.300 27.300 27.300 31 2.12 m/h 0 %
05:00:00 clear sky 26.000 26.000 26.000 34 1.37 m/h 0 %
08:00:00 clear sky 31.640 31.640 31.640 25 2.3 m/h 0 %
11:00:00 clear sky 37.100 37.100 37.100 17 1.03 m/h 0 %
14:00:00 clear sky 39.010 39.010 39.010 14 1.77 m/h 0 %
17:00:00 clear sky 38.910 38.910 38.910 14 1.11 m/h 0 %
20:00:00 clear sky 35.090 35.090 35.090 18 2.31 m/h 0 %
23:00:00 clear sky 32.510 32.510 32.510 23 2.64 m/h 0 %
26-May-2022 (Thu)
02:00:00 clear sky 30.680 30.680 30.680 25 1.46 m/h 0 %
05:00:00 clear sky 29.120 29.120 29.120 27 1.99 m/h 0 %
08:00:00 clear sky 34.820 34.820 34.820 19 3.12 m/h 0 %
11:00:00 clear sky 39.830 39.830 39.830 14 2.82 m/h 0 %
14:00:00 clear sky 42.220 42.220 42.220 11 3.3 m/h 0 %
17:00:00 clear sky 42.010 42.010 42.010 11 3.69 m/h 0 %
20:00:00 clear sky 37.080 37.080 37.080 16 3.26 m/h 0 %
23:00:00 clear sky 34.710 34.710 34.710 18 1.92 m/h 0 %
27-May-2022 (Fri)
02:00:00 clear sky 32.340 32.340 32.340 21 2.66 m/h 0 %
05:00:00 clear sky 30.380 30.380 30.380 24 1.52 m/h 0 %
08:00:00 clear sky 36.830 36.830 36.830 17 3.09 m/h 0 %
11:00:00 clear sky 42.560 42.560 42.560 11 3.48 m/h 0 %
14:00:00 clear sky 45.150 45.150 45.150 8 2.21 m/h 0 %
17:00:00 clear sky 44.770 44.770 44.770 8 2.27 m/h 0 %
20:00:00 clear sky 39.550 39.550 39.550 11 2.35 m/h 0 %
23:00:00 clear sky 36.460 36.460 36.460 17 3.07 m/h 0 %
28-May-2022 (Sat)
02:00:00 clear sky 33.170 33.170 33.170 23 3.83 m/h 0 %
05:00:00 clear sky 31.620 31.620 31.620 26 4.67 m/h 0 %
08:00:00 clear sky 37.870 37.870 37.870 18 7.2 m/h 0 %
11:00:00 clear sky 43.320 43.320 43.320 16 6.93 m/h 0 %
14:00:00 clear sky 45.730 45.730 45.730 11 7.58 m/h 0 %
17:00:00 clear sky 44.700 44.700 44.700 7 6.87 m/h 0 %
20:00:00 clear sky 37.420 37.420 37.420 17 5.83 m/h 0 %
23:00:00 clear sky 33.260 33.260 33.260 27 6.96 m/h 0 %
29-May-2022 (Sun)
02:00:00 clear sky 31.560 31.560 31.560 31 5.24 m/h 0 %
05:00:00 clear sky 30.520 30.520 30.520 33 5.66 m/h 0 %

Famous Cities (61)